createdAt,value
2022-08-23T00:02:25.116Z,4.03
2022-08-23T00:04:56.939Z,3.65
2022-08-23T00:07:39.805Z,4.25
2022-08-23T00:10:09.829Z,3.83
2022-08-23T00:12:39.218Z,3.63
2022-08-23T00:15:08.904Z,3.75
2022-08-23T00:17:37.256Z,3.75
2022-08-23T00:20:09.868Z,3.30
2022-08-23T00:22:38.431Z,3.20
2022-08-23T00:25:07.171Z,3.47
2022-08-23T00:27:35.105Z,3.00
2022-08-23T00:30:02.978Z,3.20
2022-08-23T00:32:35.939Z,2.80
2022-08-23T00:35:05.868Z,3.00
2022-08-23T00:37:33.960Z,3.40
2022-08-23T00:40:01.577Z,3.10
2022-08-23T00:43:02.544Z,2.33
2022-08-23T00:46:03.633Z,2.72
2022-08-23T00:48:32.107Z,2.80
2022-08-23T00:51:14.766Z,2.92
2022-08-23T00:53:46.587Z,2.78
2022-08-23T00:56:17.921Z,2.58
2022-08-23T00:58:46.479Z,2.90
2022-08-23T01:01:15.525Z,2.90
2022-08-23T01:04:04.027Z,2.63
2022-08-23T01:06:44.779Z,3.40
2022-08-23T01:09:18.337Z,3.20
2022-08-23T01:12:05.116Z,3.20
2022-08-23T01:14:38.987Z,2.75
2022-08-23T01:17:14.120Z,3.10
2022-08-23T01:20:09.271Z,2.70
2022-08-23T01:23:00.984Z,2.55
2022-08-23T01:25:31.317Z,3.60
2022-08-23T01:28:01.532Z,3.63
2022-08-23T01:30:33.328Z,4.07
2022-08-23T01:33:04.990Z,3.72
2022-08-23T01:35:49.977Z,3.78
2022-08-23T01:38:17.954Z,4.05
2022-08-23T01:40:46.506Z,3.50
2022-08-23T01:43:14.615Z,4.22
2022-08-23T01:45:43.151Z,3.88
2022-08-23T01:48:12.927Z,4.35
2022-08-23T01:50:40.800Z,5.20
2022-08-23T01:53:08.570Z,4.60
2022-08-23T01:55:36.807Z,4.50
2022-08-23T01:58:06.225Z,4.15
2022-08-23T02:00:37.573Z,4.15
2022-08-23T02:03:07.421Z,3.85
2022-08-23T02:05:37.416Z,4.53
2022-08-23T02:08:25.557Z,4.57
2022-08-23T02:10:55.233Z,4.15
2022-08-23T02:13:23.617Z,3.83
2022-08-23T02:15:52.739Z,3.95
2022-08-23T02:18:21.503Z,5.47
2022-08-23T02:20:51.574Z,3.90
2022-08-23T02:23:20.705Z,3.97
2022-08-23T02:25:48.515Z,4.47
2022-08-23T02:28:15.895Z,3.10
2022-08-23T02:30:45.527Z,3.00
2022-08-23T02:33:15.886Z,3.00
2022-08-23T02:35:45.178Z,3.25
2022-08-23T02:38:13.422Z,2.67
2022-08-23T02:40:42.468Z,3.17
2022-08-23T02:43:10.034Z,2.45
2022-08-23T02:45:38.762Z,2.80
2022-08-23T02:48:08.213Z,2.75
2022-08-23T02:50:43.919Z,2.53
2022-08-23T02:53:11.385Z,2.70
2022-08-23T02:55:39.180Z,2.60
2022-08-23T02:58:06.955Z,3.10
2022-08-23T03:00:34.479Z,2.58
2022-08-23T03:03:03.644Z,2.45
2022-08-23T03:05:31.614Z,2.75
2022-08-23T03:07:59.410Z,2.65
2022-08-23T03:10:26.848Z,2.67
2022-08-23T03:12:59.673Z,2.67
2022-08-23T03:15:27.017Z,2.70
2022-08-23T03:17:54.478Z,2.90
2022-08-23T03:20:22.699Z,2.45
2022-08-23T03:22:54.677Z,2.90
2022-08-23T03:25:25.593Z,2.50
2022-08-23T03:28:08.270Z,2.42
2022-08-23T03:30:40.099Z,2.30
2022-08-23T03:33:08.542Z,2.55
2022-08-23T03:35:36.062Z,3.10
2022-08-23T03:38:04.511Z,3.30
2022-08-23T03:40:31.981Z,2.97
2022-08-23T03:43:01.555Z,3.13
2022-08-23T03:45:30.791Z,3.10
2022-08-23T03:47:58.805Z,3.10
2022-08-23T03:50:26.907Z,2.83
2022-08-23T03:52:55.107Z,2.95
2022-08-23T03:55:22.458Z,3.33
2022-08-23T03:57:51.507Z,3.15
2022-08-23T04:00:21.549Z,2.95
2022-08-23T04:02:52.224Z,2.55
2022-08-23T04:05:21.061Z,3.10
2022-08-23T04:07:51.565Z,2.90
2022-08-23T04:10:22.218Z,2.60
2022-08-23T04:12:55.146Z,2.63
2022-08-23T04:15:23.378Z,2.60
2022-08-23T04:17:51.269Z,2.75
2022-08-23T04:20:19.125Z,18.27
2022-08-23T04:22:56.423Z,4.97
2022-08-23T04:25:34.456Z,3.77
2022-08-23T04:28:03.854Z,3.15
2022-08-23T04:30:33.703Z,2.60
2022-08-23T04:33:02.342Z,2.90
2022-08-23T04:35:33.155Z,2.70
2022-08-23T04:38:01.011Z,3.83
2022-08-23T04:40:46.847Z,3.05
2022-08-23T04:43:16.565Z,3.25
2022-08-23T04:45:44.114Z,3.55
2022-08-23T04:48:23.757Z,3.67
2022-08-23T04:50:51.932Z,4.10
2022-08-23T04:53:20.981Z,3.47
2022-08-23T04:56:17.307Z,2.38
2022-08-23T04:58:45.299Z,2.80
2022-08-23T05:01:16.250Z,3.20
2022-08-23T05:03:46.195Z,3.42
2022-08-23T05:06:13.838Z,3.30
2022-08-23T05:08:41.557Z,3.63
2022-08-23T05:11:11.722Z,3.30
2022-08-23T05:13:41.712Z,3.45
2022-08-23T05:16:11.161Z,4.90
2022-08-23T05:18:44.497Z,3.80
2022-08-23T05:21:20.083Z,3.72
2022-08-23T05:23:50.929Z,4.30
2022-08-23T05:26:22.478Z,3.88
2022-08-23T05:28:50.585Z,3.85
2022-08-23T05:31:26.310Z,4.20
2022-08-23T05:33:55.719Z,4.30
2022-08-23T05:36:47.632Z,4.35
2022-08-23T05:39:25.784Z,4.78
2022-08-23T05:42:08.380Z,5.10
2022-08-23T05:44:37.464Z,4.47
2022-08-23T05:47:10.402Z,4.50
2022-08-23T05:49:46.940Z,4.50
2022-08-23T05:52:16.599Z,4.00
2022-08-23T05:54:44.449Z,3.80
2022-08-23T05:57:38.957Z,3.42
2022-08-23T06:00:12.785Z,3.20
2022-08-23T06:02:47.367Z,3.55
2022-08-23T06:05:17.035Z,6.57
2022-08-23T06:07:45.930Z,3.67
2022-08-23T06:10:16.127Z,3.10
2022-08-23T06:12:51.735Z,2.83
2022-08-23T06:15:20.033Z,2.85
2022-08-23T06:17:47.434Z,3.00
2022-08-23T06:20:16.256Z,3.22
2022-08-23T06:23:07.188Z,3.17
2022-08-23T06:25:41.077Z,3.20
2022-08-23T06:28:12.299Z,3.92
2022-08-23T06:30:43.136Z,4.07
2022-08-23T06:33:30.678Z,3.08
2022-08-23T06:36:30.305Z,3.70
2022-08-23T06:39:20.032Z,3.70
2022-08-23T06:42:34.516Z,3.28
2022-08-23T06:45:02.247Z,3.38
2022-08-23T06:47:39.121Z,3.60
2022-08-23T06:50:07.324Z,3.42
2022-08-23T06:52:55.184Z,4.10
2022-08-23T06:55:45.955Z,4.45
2022-08-23T06:58:27.375Z,4.40
2022-08-23T07:01:42.054Z,3.65
2022-08-23T07:04:12.728Z,3.55
2022-08-23T07:06:59.442Z,4.50
2022-08-23T07:09:27.430Z,4.07
2022-08-23T07:11:59.633Z,4.30
2022-08-23T07:14:28.138Z,3.83
2022-08-23T07:16:59.619Z,3.50
2022-08-23T07:19:32.175Z,3.40
2022-08-23T07:22:01.457Z,3.70
2022-08-23T07:24:33.520Z,3.97
2022-08-23T07:27:07.295Z,2.85
2022-08-23T07:29:39.923Z,3.47
2022-08-23T07:32:08.791Z,3.20
2022-08-23T07:34:37.322Z,3.15
2022-08-23T07:37:15.183Z,3.00
2022-08-23T07:39:44.561Z,3.13
2022-08-23T07:42:23.622Z,2.90
2022-08-23T07:44:54.630Z,3.35
2022-08-23T07:47:24.861Z,3.20
2022-08-23T07:49:58.367Z,3.25
2022-08-23T07:52:27.090Z,4.18
2022-08-23T07:54:55.018Z,3.63
2022-08-23T07:57:29.404Z,3.30
2022-08-23T08:00:07.518Z,3.13
2022-08-23T08:02:48.789Z,3.08
2022-08-23T08:05:23.899Z,3.15
2022-08-23T08:07:52.939Z,3.00
2022-08-23T08:10:20.998Z,3.28
2022-08-23T08:12:50.120Z,3.08
2022-08-23T08:15:20.295Z,3.60
2022-08-23T08:17:54.828Z,3.65
2022-08-23T08:20:23.701Z,2.90
2022-08-23T08:22:58.824Z,3.90
2022-08-23T08:25:45.993Z,3.40
2022-08-23T08:28:16.224Z,3.17
2022-08-23T08:30:44.095Z,3.35
2022-08-23T08:33:11.979Z,2.92
2022-08-23T08:35:40.239Z,2.88
2022-08-23T08:38:07.691Z,3.05
2022-08-23T08:40:40.428Z,2.92
2022-08-23T08:43:31.542Z,3.20
2022-08-23T08:46:07.261Z,3.00
2022-08-23T08:48:46.233Z,3.00
2022-08-23T08:51:28.836Z,3.30
2022-08-23T08:53:59.157Z,3.60
2022-08-23T08:56:38.144Z,2.55
2022-08-23T08:59:35.629Z,3.20
2022-08-23T09:02:03.391Z,3.70
2022-08-23T09:04:37.473Z,2.92
2022-08-23T09:07:19.318Z,3.00
2022-08-23T09:09:55.253Z,3.67
2022-08-23T09:12:40.042Z,2.72
2022-08-23T09:15:30.392Z,2.80
2022-08-23T09:18:04.003Z,2.65
2022-08-23T09:20:33.370Z,3.28
2022-08-23T09:23:15.765Z,2.67
2022-08-23T09:26:04.017Z,2.85
2022-08-23T09:28:38.463Z,2.92
2022-08-23T09:31:08.836Z,3.45
2022-08-23T09:33:46.137Z,2.75
2022-08-23T09:36:35.205Z,2.75
2022-08-23T09:39:23.290Z,3.10
2022-08-23T09:42:01.151Z,2.70
2022-08-23T09:44:44.374Z,3.22
2022-08-23T09:47:17.353Z,3.60
2022-08-23T09:49:52.637Z,3.58
2022-08-23T09:52:37.852Z,2.95
2022-08-23T09:55:11.319Z,2.70
2022-08-23T09:57:48.247Z,2.88
2022-08-23T10:00:22.308Z,3.10
2022-08-23T10:02:57.900Z,2.80
2022-08-23T10:05:38.406Z,2.90
2022-08-23T10:08:10.831Z,2.28
2022-08-23T10:10:51.127Z,2.65
2022-08-23T10:13:23.949Z,2.38
2022-08-23T10:16:10.381Z,2.30
2022-08-23T10:19:16.966Z,2.40
2022-08-23T10:22:11.770Z,2.45
2022-08-23T10:25:02.682Z,2.53
2022-08-23T10:28:09.935Z,2.90
2022-08-23T10:30:59.436Z,2.70
2022-08-23T10:33:51.116Z,2.47
2022-08-23T10:36:43.142Z,2.28
2022-08-23T10:39:25.572Z,2.35
2022-08-23T10:42:12.467Z,2.20
2022-08-23T10:44:46.619Z,2.40
2022-08-23T10:47:27.719Z,2.50
2022-08-23T10:49:58.643Z,2.38
2022-08-23T10:52:36.221Z,2.10
2022-08-23T10:55:17.766Z,2.30
2022-08-23T10:57:48.419Z,2.45
2022-08-23T11:00:27.277Z,2.38
2022-08-23T11:03:19.575Z,2.33
2022-08-23T11:06:30.235Z,2.10
2022-08-23T11:09:04.979Z,2.53
2022-08-23T11:11:50.833Z,2.22
2022-08-23T11:15:02.119Z,5.07
2022-08-23T11:17:52.404Z,2.70
2022-08-23T11:20:51.190Z,2.35
2022-08-23T11:23:50.340Z,2.15
2022-08-23T11:26:26.787Z,2.25
2022-08-23T11:28:55.753Z,3.35
2022-08-23T11:31:30.525Z,2.40
2022-08-23T11:34:16.856Z,2.40
2022-08-23T11:37:19.541Z,2.97
2022-08-23T11:39:58.641Z,4.30
2022-08-23T11:42:38.285Z,2.90
2022-08-23T11:45:24.551Z,1.80
2022-08-23T11:48:36.569Z,15.40
2022-08-23T11:51:44.965Z,2.33
2022-08-23T11:54:43.923Z,1.95
2022-08-23T11:57:32.725Z,2.33
2022-08-23T12:00:09.714Z,1.80
2022-08-23T12:02:39.835Z,1.98
2022-08-23T12:05:22.113Z,2.30
2022-08-23T12:08:35.886Z,1.90
2022-08-23T12:11:08.787Z,2.70
2022-08-23T12:14:18.010Z,1.80
2022-08-23T12:16:50.033Z,1.88
2022-08-23T12:19:40.135Z,2.60
2022-08-23T12:22:24.259Z,1.73
2022-08-23T12:25:05.414Z,6.47
2022-08-23T12:27:44.996Z,2.10
2022-08-23T12:30:31.609Z,2.17
2022-08-23T12:33:43.980Z,2.45
2022-08-23T12:36:18.740Z,2.28
2022-08-23T12:38:52.100Z,2.50
2022-08-23T12:41:30.738Z,2.03
2022-08-23T12:44:03.697Z,1.90
2022-08-23T12:46:35.638Z,2.75
2022-08-23T12:49:04.394Z,2.00
2022-08-23T12:51:31.824Z,1.92
2022-08-23T12:54:13.821Z,1.80
2022-08-23T12:56:44.802Z,1.90
2022-08-23T12:59:35.440Z,2.00
2022-08-23T13:02:08.373Z,2.13
2022-08-23T13:04:39.439Z,2.00
2022-08-23T13:07:12.547Z,2.78
2022-08-23T13:09:42.669Z,1.65
2022-08-23T13:12:21.487Z,1.83
2022-08-23T13:14:51.915Z,1.55
2022-08-23T13:17:28.431Z,1.90
2022-08-23T13:20:24.006Z,2.55
2022-08-23T13:23:06.820Z,2.00
2022-08-23T13:25:37.881Z,1.77
2022-08-23T13:28:27.203Z,1.83
2022-08-23T13:31:01.622Z,2.25
2022-08-23T13:33:31.133Z,2.50
2022-08-23T13:36:15.002Z,2.30
2022-08-23T13:38:44.379Z,2.15
2022-08-23T13:41:38.603Z,2.28
2022-08-23T13:44:08.807Z,1.95
2022-08-23T13:46:45.152Z,2.10
2022-08-23T13:49:21.766Z,2.20
2022-08-23T13:52:24.621Z,3.00
2022-08-23T13:54:52.497Z,2.25
2022-08-23T13:57:22.279Z,6.40
2022-08-23T13:59:59.131Z,4.82
2022-08-23T14:02:26.835Z,2.40
2022-08-23T14:04:54.345Z,2.10
2022-08-23T14:07:21.866Z,2.20
2022-08-23T14:09:53.153Z,2.00
2022-08-23T14:12:29.670Z,2.22
2022-08-23T14:14:59.052Z,2.17
2022-08-23T14:17:26.895Z,2.40
2022-08-23T14:20:32.312Z,2.40
2022-08-23T14:22:41.874Z,2.58
2022-08-23T14:25:12.456Z,2.67
2022-08-23T14:27:44.952Z,4.05
2022-08-23T14:30:31.254Z,2.83
2022-08-23T14:33:01.572Z,3.15
2022-08-23T14:35:29.882Z,2.75
2022-08-23T14:38:05.295Z,2.58
2022-08-23T14:40:35.376Z,2.88
2022-08-23T14:43:05.110Z,2.88
2022-08-23T14:45:32.555Z,4.30
2022-08-23T14:48:00.048Z,2.70
2022-08-23T14:50:27.759Z,2.60
2022-08-23T14:52:56.363Z,2.90
2022-08-23T14:55:25.129Z,2.55
2022-08-23T14:57:52.797Z,2.53
2022-08-23T15:00:20.221Z,2.85
2022-08-23T15:02:50.273Z,2.22
2022-08-23T15:05:17.684Z,2.20
2022-08-23T15:07:45.430Z,2.10
2022-08-23T15:13:20.415Z,2.70
2022-08-23T15:15:50.604Z,2.55
2022-08-23T15:18:18.768Z,2.63
2022-08-23T15:20:46.396Z,2.63
2022-08-23T15:23:14.466Z,2.30
2022-08-23T15:25:44.060Z,2.38
2022-08-23T15:28:16.008Z,2.25
2022-08-23T15:30:44.606Z,2.10
2022-08-23T15:33:12.599Z,2.30
2022-08-23T15:35:46.756Z,2.05
2022-08-23T15:38:17.909Z,2.15
2022-08-23T15:40:45.991Z,2.30
2022-08-23T15:43:13.338Z,2.20
2022-08-23T15:45:41.133Z,2.40
2022-08-23T15:48:53.596Z,2.63
2022-08-23T15:51:21.449Z,2.22
2022-08-23T15:53:49.113Z,2.55
2022-08-23T15:56:25.142Z,2.25
2022-08-23T15:58:54.583Z,2.55
2022-08-23T16:01:24.635Z,2.20
2022-08-23T16:03:52.468Z,2.22
2022-08-23T16:06:19.908Z,2.10
2022-08-23T16:08:52.607Z,2.20
2022-08-23T16:11:21.383Z,2.22
2022-08-23T16:13:49.920Z,2.90
2022-08-23T16:16:24.837Z,2.33
2022-08-23T16:18:58.000Z,2.35
2022-08-23T16:21:27.573Z,2.33
2022-08-23T16:23:55.829Z,7.43
2022-08-23T16:26:34.620Z,4.32
2022-08-23T16:29:05.142Z,3.50
2022-08-23T16:31:39.264Z,2.80
2022-08-23T16:34:10.838Z,2.20
2022-08-23T16:36:41.496Z,1.90
2022-08-23T16:39:12.396Z,1.90
2022-08-23T16:41:40.090Z,2.00
2022-08-23T16:44:07.982Z,2.10
2022-08-23T16:46:37.146Z,2.58
2022-08-23T16:49:04.682Z,2.78
2022-08-23T16:51:32.033Z,2.35
2022-08-23T16:54:02.467Z,2.45
2022-08-23T16:56:31.878Z,2.28
2022-08-23T16:58:59.828Z,3.15
2022-08-23T17:01:28.128Z,2.83
2022-08-23T17:03:55.994Z,3.72
2022-08-23T17:06:23.443Z,6.07
2022-08-23T17:08:50.812Z,2.70
2022-08-23T17:11:20.271Z,3.95
2022-08-23T17:13:47.699Z,3.63
2022-08-23T17:16:15.607Z,3.45
2022-08-23T17:18:42.975Z,3.45
2022-08-23T17:21:10.386Z,3.53
2022-08-23T17:23:40.435Z,10.23
2022-08-23T17:26:09.838Z,3.15
2022-08-23T17:28:37.192Z,4.05
2022-08-23T17:31:04.662Z,6.80
2022-08-23T17:33:32.276Z,4.45
2022-08-23T17:35:59.823Z,7.32
2022-08-23T17:38:27.169Z,18.77
2022-08-23T17:40:55.271Z,8.27
2022-08-23T17:43:22.614Z,4.57
2022-08-23T17:45:51.909Z,28.45
2022-08-23T17:48:22.074Z,22.45
2022-08-23T17:50:49.566Z,8.55
2022-08-23T17:53:18.526Z,45.55
2022-08-23T17:55:45.981Z,46.63
2022-08-23T17:58:14.409Z,83.60
2022-08-23T18:00:41.814Z,64.03
2022-08-23T18:03:09.369Z,39.60
2022-08-23T18:05:40.145Z,11.05
2022-08-23T18:08:08.706Z,21.47
2022-08-23T18:10:36.424Z,30.88
2022-08-23T18:13:04.274Z,8.88
2022-08-23T18:15:31.933Z,21.80
2022-08-23T18:18:00.693Z,43.90
2022-08-23T18:20:29.088Z,8.13
2022-08-23T18:22:58.335Z,18.95
2022-08-23T18:25:26.786Z,14.80
2022-08-23T18:28:10.063Z,17.30
2022-08-23T18:30:46.184Z,18.38
2022-08-23T18:33:15.500Z,26.75
2022-08-23T18:35:43.831Z,37.58
2022-08-23T18:38:14.818Z,14.27
2022-08-23T18:40:47.550Z,8.60
2022-08-23T18:43:18.615Z,10.90
2022-08-23T18:45:48.254Z,8.18
2022-08-23T18:48:16.666Z,19.40
2022-08-23T18:50:44.269Z,21.75
2022-08-23T18:53:13.094Z,9.23
2022-08-23T18:55:41.644Z,14.75
2022-08-23T18:58:09.286Z,16.02
2022-08-23T19:00:39.022Z,7.72
2022-08-23T19:03:07.504Z,15.93
2022-08-23T19:05:41.463Z,13.02
2022-08-23T19:08:11.646Z,41.22
2022-08-23T19:10:46.346Z,25.50
2022-08-23T19:13:15.489Z,33.75
2022-08-23T19:15:42.898Z,54.03
2022-08-23T19:18:11.180Z,40.78
2022-08-23T19:20:39.047Z,45.40
2022-08-23T19:23:06.438Z,56.05
2022-08-23T19:25:37.262Z,14.23
2022-08-23T19:28:05.619Z,18.40
2022-08-23T19:30:33.237Z,30.10
2022-08-23T19:33:01.541Z,12.32
2022-08-23T19:35:30.447Z,13.60
2022-08-23T19:38:01.269Z,68.57
2022-08-23T19:40:31.127Z,68.45
2022-08-23T19:43:01.610Z,28.05
2022-08-23T19:45:34.817Z,9.88
2022-08-23T19:48:07.730Z,22.75
2022-08-23T19:50:36.187Z,11.45
2022-08-23T19:53:04.550Z,4.93
2022-08-23T19:55:32.888Z,4.70
2022-08-23T19:58:00.870Z,5.07
2022-08-23T20:00:31.507Z,5.32
2022-08-23T20:02:59.125Z,5.37
2022-08-23T20:05:26.606Z,5.13
2022-08-23T20:07:54.049Z,5.05
2022-08-23T20:10:23.693Z,3.72
2022-08-23T20:12:51.254Z,3.88
2022-08-23T20:15:18.914Z,3.72
2022-08-23T20:17:46.491Z,3.90
2022-08-23T20:20:14.103Z,3.83
2022-08-23T20:23:00.986Z,3.85
2022-08-23T20:25:29.343Z,4.78
2022-08-23T20:27:57.415Z,4.28
2022-08-23T20:30:25.070Z,3.80
2022-08-23T20:32:52.450Z,3.83
2022-08-23T20:35:19.886Z,3.92
2022-08-23T20:37:48.712Z,4.20
2022-08-23T20:40:17.214Z,4.13
2022-08-23T20:43:33.231Z,3.78
2022-08-23T20:46:05.647Z,4.18
2022-08-23T20:48:35.381Z,5.60
2022-08-23T20:51:15.490Z,8.65
2022-08-23T20:53:52.140Z,5.47
2022-08-23T20:56:29.097Z,5.22
2022-08-23T20:58:59.810Z,5.35
2022-08-23T21:01:35.051Z,8.57
2022-08-23T21:04:03.166Z,32.85
2022-08-23T21:06:38.020Z,19.23
2022-08-23T21:09:06.003Z,7.88
2022-08-23T21:11:43.168Z,13.70
2022-08-23T21:14:28.904Z,6.97
2022-08-23T21:16:58.733Z,15.85
2022-08-23T21:19:26.149Z,14.48
2022-08-23T21:21:54.914Z,7.95
2022-08-23T21:24:22.266Z,10.85
2022-08-23T21:26:51.586Z,12.02
2022-08-23T21:29:18.902Z,5.70
2022-08-23T21:31:48.215Z,7.68
2022-08-23T21:34:15.611Z,10.75
2022-08-23T21:36:43.061Z,10.65
2022-08-23T21:39:10.519Z,25.45
2022-08-23T21:41:41.663Z,10.02
2022-08-23T21:44:14.992Z,61.08
2022-08-23T21:46:42.860Z,26.83
2022-08-23T21:49:12.162Z,34.58
2022-08-23T21:51:42.588Z,60.08
2022-08-23T21:54:11.806Z,102.45
2022-08-23T21:56:39.706Z,47.95
2022-08-23T21:59:09.474Z,15.25
2022-08-23T22:01:37.192Z,16.80
2022-08-23T22:04:07.542Z,14.27
2022-08-23T22:06:35.493Z,11.38
2022-08-23T22:09:05.322Z,7.68
2022-08-23T22:11:32.690Z,6.80
2022-08-23T22:14:00.519Z,5.95
2022-08-23T22:16:27.911Z,5.47
2022-08-23T22:18:55.211Z,6.63
2022-08-23T22:21:23.244Z,7.55
2022-08-23T22:23:50.530Z,6.50
2022-08-23T22:26:18.439Z,7.28
2022-08-23T22:28:45.709Z,5.82
2022-08-23T22:31:15.323Z,7.13
2022-08-23T22:33:44.226Z,24.90
2022-08-23T22:36:14.848Z,12.02
2022-08-23T22:38:43.002Z,5.40
2022-08-23T22:41:11.270Z,4.80
2022-08-23T22:43:38.591Z,5.38
2022-08-23T22:46:06.310Z,5.78
2022-08-23T22:48:35.331Z,6.47
2022-08-23T22:51:07.873Z,7.18
2022-08-23T22:53:37.605Z,8.80
2022-08-23T22:56:06.351Z,7.05
2022-08-23T22:58:34.419Z,16.13
2022-08-23T23:01:03.755Z,5.18
2022-08-23T23:03:37.809Z,5.00
2022-08-23T23:06:07.258Z,4.13
2022-08-23T23:08:34.623Z,4.22
2022-08-23T23:11:05.251Z,4.05
2022-08-23T23:13:33.140Z,4.75
2022-08-23T23:16:07.072Z,4.63
2022-08-23T23:18:35.517Z,4.32
2022-08-23T23:21:05.307Z,4.43
2022-08-23T23:23:34.636Z,4.55
2022-08-23T23:26:04.096Z,4.90
2022-08-23T23:28:31.477Z,4.10
2022-08-23T23:30:59.563Z,4.53
2022-08-23T23:33:28.142Z,4.40
2022-08-23T23:35:55.855Z,3.85
2022-08-23T23:38:23.422Z,4.20
2022-08-23T23:40:50.680Z,5.30
2022-08-23T23:43:18.030Z,4.45
2022-08-23T23:45:45.418Z,3.33
2022-08-23T23:48:12.927Z,3.35
2022-08-23T23:50:45.466Z,3.70
2022-08-23T23:53:15.204Z,3.05
2022-08-23T23:55:43.160Z,3.17
2022-08-23T23:58:10.677Z,3.10
